sensor_id;sensor_type;location;lat;lon;timestamp;P1;durP1;ratioP1;P2;durP2;ratioP2
26050;SDS011;13825;53.496;10.020;2023-03-21T14:11:50;12.73;;;7.43;;
26050;SDS011;13825;53.496;10.020;2023-03-21T14:15:02;12.73;;;8.03;;
26050;SDS011;13825;53.496;10.020;2023-03-21T14:17:47;12.43;;;7.73;;
26050;SDS011;13825;53.496;10.020;2023-03-21T14:20:41;14.10;;;8.37;;
26050;SDS011;13825;53.496;10.020;2023-03-21T14:29:41;11.10;;;7.17;;
26050;SDS011;13825;53.496;10.020;2023-03-21T14:35:47;11.43;;;7.37;;
26050;SDS011;13825;53.496;10.020;2023-03-21T14:43:29;12.03;;;8.03;;
26050;SDS011;13825;53.496;10.020;2023-03-21T15:17:09;12.03;;;7.90;;
26050;SDS011;13825;53.496;10.020;2023-03-21T15:19:47;14.53;;;9.57;;
26050;SDS011;13825;53.496;10.020;2023-03-21T15:22:31;12.17;;;8.60;;
26050;SDS011;13825;53.496;10.020;2023-03-21T15:25:11;12.83;;;8.83;;
26050;SDS011;13825;53.496;10.020;2023-03-21T15:27:45;11.80;;;7.53;;
26050;SDS011;13825;53.496;10.020;2023-03-21T15:30:25;9.50;;;6.93;;
26050;SDS011;13825;53.496;10.020;2023-03-21T15:33:24;11.63;;;7.53;;
26050;SDS011;13825;53.496;10.020;2023-03-21T15:36:31;12.30;;;7.30;;
26050;SDS011;13825;53.496;10.020;2023-03-21T15:39:30;11.90;;;7.53;;
26050;SDS011;13825;53.496;10.020;2023-03-21T15:42:04;9.50;;;7.10;;
26050;SDS011;13825;53.496;10.020;2023-03-21T15:44:55;13.67;;;9.20;;
26050;SDS011;13825;53.496;10.020;2023-03-21T15:47:49;12.00;;;7.27;;
26050;SDS011;13825;53.496;10.020;2023-03-21T15:50:31;8.63;;;5.80;;
26050;SDS011;13825;53.496;10.020;2023-03-21T15:53:12;10.60;;;6.27;;
26050;SDS011;13825;53.496;10.020;2023-03-21T15:58:50;7.43;;;5.43;;
26050;SDS011;13825;53.496;10.020;2023-03-21T16:01:30;8.80;;;5.17;;
26050;SDS011;13825;53.496;10.020;2023-03-21T16:04:33;8.57;;;5.90;;
26050;SDS011;13825;53.496;10.020;2023-03-21T16:10:26;8.60;;;6.33;;
26050;SDS011;13825;53.496;10.020;2023-03-21T16:13:09;9.50;;;5.60;;
26050;SDS011;13825;53.496;10.020;2023-03-21T16:15:56;8.17;;;5.60;;
26050;SDS011;13825;53.496;10.020;2023-03-21T16:18:30;7.63;;;5.27;;
26050;SDS011;13825;53.496;10.020;2023-03-21T16:21:18;7.80;;;5.17;;
26050;SDS011;13825;53.496;10.020;2023-03-21T16:23:54;12.80;;;5.97;;
26050;SDS011;13825;53.496;10.020;2023-03-21T16:26:30;9.23;;;5.57;;
26050;SDS011;13825;53.496;10.020;2023-03-21T16:29:15;8.10;;;5.93;;
26050;SDS011;13825;53.496;10.020;2023-03-21T16:31:51;8.53;;;4.70;;
26050;SDS011;13825;53.496;10.020;2023-03-21T16:34:36;8.37;;;5.60;;
26050;SDS011;13825;53.496;10.020;2023-03-21T16:37:20;9.97;;;5.80;;
26050;SDS011;13825;53.496;10.020;2023-03-21T16:40:11;8.53;;;5.80;;
26050;SDS011;13825;53.496;10.020;2023-03-21T16:43:02;12.23;;;8.13;;
26050;SDS011;13825;53.496;10.020;2023-03-21T16:45:36;11.00;;;6.10;;
26050;SDS011;13825;53.496;10.020;2023-03-21T16:48:07;10.10;;;6.77;;
26050;SDS011;13825;53.496;10.020;2023-03-21T16:50:45;10.10;;;6.40;;
26050;SDS011;13825;53.496;10.020;2023-03-21T16:53:16;11.83;;;6.87;;
26050;SDS011;13825;53.496;10.020;2023-03-21T16:56:01;11.47;;;6.97;;
26050;SDS011;13825;53.496;10.020;2023-03-21T16:58:38;10.13;;;6.43;;
26050;SDS011;13825;53.496;10.020;2023-03-21T17:01:23;7.80;;;6.07;;
26050;SDS011;13825;53.496;10.020;2023-03-21T17:04:18;11.00;;;6.60;;
26050;SDS011;13825;53.496;10.020;2023-03-21T17:10:26;10.57;;;6.43;;
26050;SDS011;13825;53.496;10.020;2023-03-21T17:26:07;13.03;;;7.93;;
26050;SDS011;13825;53.496;10.020;2023-03-21T17:29:12;14.93;;;7.77;;
26050;SDS011;13825;53.496;10.020;2023-03-21T17:31:52;16.27;;;8.43;;
26050;SDS011;13825;53.496;10.020;2023-03-21T17:34:21;14.57;;;7.50;;
26050;SDS011;13825;53.496;10.020;2023-03-21T17:37:04;13.90;;;8.60;;
26050;SDS011;13825;53.496;10.020;2023-03-21T17:39:45;15.47;;;8.57;;
26050;SDS011;13825;53.496;10.020;2023-03-21T17:42:18;11.43;;;7.83;;
26050;SDS011;13825;53.496;10.020;2023-03-21T17:44:46;12.40;;;7.60;;
26050;SDS011;13825;53.496;10.020;2023-03-21T17:47:20;13.40;;;7.80;;
26050;SDS011;13825;53.496;10.020;2023-03-21T17:50:52;12.20;;;7.60;;
26050;SDS011;13825;53.496;10.020;2023-03-21T17:52:38;10.97;;;7.33;;
26050;SDS011;13825;53.496;10.020;2023-03-21T17:55:08;12.77;;;8.03;;
26050;SDS011;13825;53.496;10.020;2023-03-21T18:00:35;15.93;;;8.77;;
26050;SDS011;13825;53.496;10.020;2023-03-21T18:03:15;15.47;;;8.90;;
26050;SDS011;13825;53.496;10.020;2023-03-21T18:05:46;16.07;;;9.67;;
26050;SDS011;13825;53.496;10.020;2023-03-21T18:08:43;16.40;;;9.33;;
26050;SDS011;13825;53.496;10.020;2023-03-21T18:11:33;12.73;;;8.53;;
26050;SDS011;13825;53.496;10.020;2023-03-21T18:14:14;14.40;;;9.13;;
26050;SDS011;13825;53.496;10.020;2023-03-21T18:17:11;16.00;;;9.20;;
26050;SDS011;13825;53.496;10.020;2023-03-21T18:23:37;15.47;;;8.60;;
26050;SDS011;13825;53.496;10.020;2023-03-21T18:26:47;18.03;;;9.50;;
26050;SDS011;13825;53.496;10.020;2023-03-21T18:29:19;15.17;;;9.77;;
26050;SDS011;13825;53.496;10.020;2023-03-21T18:32:33;18.30;;;9.87;;
26050;SDS011;13825;53.496;10.020;2023-03-21T18:38:01;13.43;;;8.93;;
26050;SDS011;13825;53.496;10.020;2023-03-21T18:44:05;13.70;;;9.13;;
26050;SDS011;13825;53.496;10.020;2023-03-21T18:46:52;15.80;;;9.70;;
26050;SDS011;13825;53.496;10.020;2023-03-21T18:49:30;16.47;;;9.53;;
26050;SDS011;13825;53.496;10.020;2023-03-21T18:52:37;17.23;;;9.63;;
26050;SDS011;13825;53.496;10.020;2023-03-21T18:58:28;17.97;;;10.20;;
26050;SDS011;13825;53.496;10.020;2023-03-21T19:01:13;18.60;;;9.93;;
26050;SDS011;13825;53.496;10.020;2023-03-21T19:04:02;14.17;;;10.03;;
26050;SDS011;13825;53.496;10.020;2023-03-21T19:06:34;20.70;;;10.60;;
26050;SDS011;13825;53.496;10.020;2023-03-21T19:12:47;16.63;;;9.93;;
